sensor_id;sensor_type;location;lat;lon;timestamp;P1;durP1;ratioP1;P2;durP2;ratioP2
83404;SDS011;73331;48.168;20.776;2024-03-06T00:00:57;33.97;;;16.05;;
83404;SDS011;73331;48.168;20.776;2024-03-06T00:02:27;30.80;;;15.43;;
83404;SDS011;73331;48.168;20.776;2024-03-06T00:03:58;36.42;;;16.05;;
83404;SDS011;73331;48.168;20.776;2024-03-06T00:05:28;38.38;;;17.30;;
83404;SDS011;73331;48.168;20.776;2024-03-06T00:06:59;31.45;;;15.55;;
83404;SDS011;73331;48.168;20.776;2024-03-06T00:08:29;30.92;;;16.02;;
83404;SDS011;73331;48.168;20.776;2024-03-06T00:10:00;34.70;;;16.70;;
83404;SDS011;73331;48.168;20.776;2024-03-06T00:11:30;38.63;;;18.63;;
83404;SDS011;73331;48.168;20.776;2024-03-06T00:13:01;29.45;;;13.15;;
83404;SDS011;73331;48.168;20.776;2024-03-06T00:14:31;36.95;;;17.48;;
83404;SDS011;73331;48.168;20.776;2024-03-06T00:16:03;30.27;;;15.75;;
83404;SDS011;73331;48.168;20.776;2024-03-06T00:19:04;47.58;;;20.42;;
83404;SDS011;73331;48.168;20.776;2024-03-06T00:20:35;39.65;;;18.52;;
83404;SDS011;73331;48.168;20.776;2024-03-06T00:22:05;42.55;;;18.45;;
83404;SDS011;73331;48.168;20.776;2024-03-06T00:23:36;31.80;;;16.15;;
83404;SDS011;73331;48.168;20.776;2024-03-06T00:25:07;39.42;;;16.10;;
83404;SDS011;73331;48.168;20.776;2024-03-06T00:26:41;31.42;;;13.40;;
83404;SDS011;73331;48.168;20.776;2024-03-06T00:28:13;30.92;;;14.48;;
83404;SDS011;73331;48.168;20.776;2024-03-06T00:29:44;31.35;;;14.38;;
83404;SDS011;73331;48.168;20.776;2024-03-06T00:31:15;26.98;;;12.98;;
83404;SDS011;73331;48.168;20.776;2024-03-06T00:32:45;28.73;;;13.57;;
83404;SDS011;73331;48.168;20.776;2024-03-06T00:34:16;19.70;;;7.20;;
83404;SDS011;73331;48.168;20.776;2024-03-06T00:35:47;24.10;;;11.80;;
83404;SDS011;73331;48.168;20.776;2024-03-06T00:37:17;24.38;;;11.35;;
83404;SDS011;73331;48.168;20.776;2024-03-06T00:38:48;23.90;;;12.65;;
83404;SDS011;73331;48.168;20.776;2024-03-06T00:40:18;22.60;;;11.48;;
83404;SDS011;73331;48.168;20.776;2024-03-06T00:41:49;26.92;;;13.15;;
83404;SDS011;73331;48.168;20.776;2024-03-06T00:43:19;29.95;;;13.90;;
83404;SDS011;73331;48.168;20.776;2024-03-06T00:44:50;30.10;;;14.73;;
83404;SDS011;73331;48.168;20.776;2024-03-06T00:46:21;27.90;;;15.15;;
83404;SDS011;73331;48.168;20.776;2024-03-06T00:47:51;32.17;;;14.98;;
83404;SDS011;73331;48.168;20.776;2024-03-06T00:49:22;27.75;;;14.57;;
83404;SDS011;73331;48.168;20.776;2024-03-06T00:50:52;29.85;;;14.10;;
83404;SDS011;73331;48.168;20.776;2024-03-06T00:52:22;31.73;;;15.90;;
83404;SDS011;73331;48.168;20.776;2024-03-06T00:53:53;25.65;;;15.35;;
83404;SDS011;73331;48.168;20.776;2024-03-06T00:55:23;29.27;;;15.27;;
83404;SDS011;73331;48.168;20.776;2024-03-06T00:56:54;30.67;;;16.17;;
83404;SDS011;73331;48.168;20.776;2024-03-06T00:58:25;30.85;;;15.65;;
83404;SDS011;73331;48.168;20.776;2024-03-06T00:59:55;32.67;;;16.83;;
83404;SDS011;73331;48.168;20.776;2024-03-06T01:01:26;34.33;;;16.92;;
83404;SDS011;73331;48.168;20.776;2024-03-06T01:04:28;34.42;;;17.80;;
83404;SDS011;73331;48.168;20.776;2024-03-06T01:05:58;39.72;;;17.27;;
83404;SDS011;73331;48.168;20.776;2024-03-06T01:07:29;33.67;;;18.65;;
83404;SDS011;73331;48.168;20.776;2024-03-06T01:09:00;37.25;;;18.15;;
83404;SDS011;73331;48.168;20.776;2024-03-06T01:10:31;37.53;;;19.20;;
83404;SDS011;73331;48.168;20.776;2024-03-06T01:12:01;33.85;;;18.35;;
83404;SDS011;73331;48.168;20.776;2024-03-06T01:13:32;36.63;;;18.73;;
83404;SDS011;73331;48.168;20.776;2024-03-06T01:15:03;27.48;;;14.35;;
83404;SDS011;73331;48.168;20.776;2024-03-06T01:16:34;32.85;;;16.55;;
83404;SDS011;73331;48.168;20.776;2024-03-06T01:18:04;35.97;;;17.30;;
83404;SDS011;73331;48.168;20.776;2024-03-06T01:19:35;30.58;;;16.05;;
83404;SDS011;73331;48.168;20.776;2024-03-06T01:21:05;27.77;;;12.65;;
83404;SDS011;73331;48.168;20.776;2024-03-06T01:22:36;27.05;;;13.90;;
83404;SDS011;73331;48.168;20.776;2024-03-06T01:24:06;25.60;;;13.40;;
83404;SDS011;73331;48.168;20.776;2024-03-06T01:25:37;24.95;;;13.50;;
83404;SDS011;73331;48.168;20.776;2024-03-06T01:27:07;25.30;;;12.52;;
83404;SDS011;73331;48.168;20.776;2024-03-06T01:28:38;29.50;;;13.48;;
83404;SDS011;73331;48.168;20.776;2024-03-06T01:30:09;26.20;;;12.93;;
83404;SDS011;73331;48.168;20.776;2024-03-06T01:31:39;28.20;;;13.88;;
83404;SDS011;73331;48.168;20.776;2024-03-06T01:33:10;34.60;;;16.98;;
83404;SDS011;73331;48.168;20.776;2024-03-06T01:34:40;35.03;;;16.15;;
83404;SDS011;73331;48.168;20.776;2024-03-06T01:36:11;36.15;;;16.23;;
83404;SDS011;73331;48.168;20.776;2024-03-06T01:37:42;47.53;;;19.52;;
83404;SDS011;73331;48.168;20.776;2024-03-06T01:39:12;43.00;;;19.15;;
83404;SDS011;73331;48.168;20.776;2024-03-06T01:40:43;44.30;;;19.45;;
83404;SDS011;73331;48.168;20.776;2024-03-06T01:42:16;41.78;;;18.02;;
83404;SDS011;73331;48.168;20.776;2024-03-06T01:43:47;43.03;;;18.75;;
83404;SDS011;73331;48.168;20.776;2024-03-06T01:45:18;45.15;;;18.75;;
83404;SDS011;73331;48.168;20.776;2024-03-06T01:46:50;48.63;;;18.23;;
83404;SDS011;73331;48.168;20.776;2024-03-06T01:48:21;43.10;;;19.15;;
83404;SDS011;73331;48.168;20.776;2024-03-06T01:49:56;44.42;;;21.40;;
83404;SDS011;73331;48.168;20.776;2024-03-06T01:51:26;45.40;;;19.88;;
83404;SDS011;73331;48.168;20.776;2024-03-06T01:52:57;42.13;;;17.55;;
83404;SDS011;73331;48.168;20.776;2024-03-06T01:54:28;39.38;;;18.55;;
83404;SDS011;73331;48.168;20.776;2024-03-06T01:56:01;34.10;;;17.05;;
83404;SDS011;73331;48.168;20.776;2024-03-06T01:57:34;27.88;;;15.40;;
83404;SDS011;73331;48.168;20.776;2024-03-06T01:59:04;26.75;;;14.20;;
83404;SDS011;73331;48.168;20.776;2024-03-06T02:00:35;25.90;;;12.00;;
83404;SDS011;73331;48.168;20.776;2024-03-06T02:02:06;20.23;;;9.32;;
83404;SDS011;73331;48.168;20.776;2024-03-06T02:05:09;16.95;;;8.68;;
83404;SDS011;73331;48.168;20.776;2024-03-06T02:06:40;26.20;;;10.93;;
83404;SDS011;73331;48.168;20.776;2024-03-06T02:08:11;20.30;;;10.57;;
83404;SDS011;73331;48.168;20.776;2024-03-06T02:09:42;25.13;;;12.15;;
83404;SDS011;73331;48.168;20.776;2024-03-06T02:11:13;24.50;;;12.13;;
83404;SDS011;73331;48.168;20.776;2024-03-06T02:12:43;30.52;;;14.55;;
83404;SDS011;73331;48.168;20.776;2024-03-06T02:14:15;40.72;;;18.98;;
83404;SDS011;73331;48.168;20.776;2024-03-06T02:15:46;34.33;;;16.25;;
83404;SDS011;73331;48.168;20.776;2024-03-06T02:17:18;38.25;;;17.48;;
83404;SDS011;73331;48.168;20.776;2024-03-06T02:18:52;34.08;;;14.93;;
83404;SDS011;73331;48.168;20.776;2024-03-06T02:20:24;31.38;;;14.68;;
83404;SDS011;73331;48.168;20.776;2024-03-06T02:21:55;36.05;;;16.15;;
83404;SDS011;73331;48.168;20.776;2024-03-06T02:23:25;29.15;;;13.07;;
83404;SDS011;73331;48.168;20.776;2024-03-06T02:24:55;29.38;;;14.10;;
83404;SDS011;73331;48.168;20.776;2024-03-06T02:26:26;33.60;;;16.23;;
83404;SDS011;73331;48.168;20.776;2024-03-06T02:27:57;27.85;;;13.77;;
83404;SDS011;73331;48.168;20.776;2024-03-06T02:29:27;31.92;;;13.70;;
83404;SDS011;73331;48.168;20.776;2024-03-06T02:30:57;27.40;;;14.55;;
83404;SDS011;73331;48.168;20.776;2024-03-06T02:32:29;25.50;;;12.80;;
83404;SDS011;73331;48.168;20.776;2024-03-06T02:34:00;27.23;;;13.55;;
83404;SDS011;73331;48.168;20.776;2024-03-06T02:35:35;30.40;;;14.70;;
83404;SDS011;73331;48.168;20.776;2024-03-06T02:37:06;30.50;;;13.55;;
83404;SDS011;73331;48.168;20.776;2024-03-06T02:38:36;24.48;;;12.75;;
83404;SDS011;73331;48.168;20.776;2024-03-06T02:40:07;24.80;;;12.88;;
83404;SDS011;73331;48.168;20.776;2024-03-06T02:41:40;24.65;;;12.15;;
83404;SDS011;73331;48.168;20.776;2024-03-06T02:43:10;25.67;;;12.88;;
83404;SDS011;73331;48.168;20.776;2024-03-06T02:44:41;25.38;;;11.65;;
83404;SDS011;73331;48.168;20.776;2024-03-06T02:46:11;22.77;;;12.77;;
83404;SDS011;73331;48.168;20.776;2024-03-06T02:47:42;24.27;;;11.70;;
83404;SDS011;73331;48.168;20.776;2024-03-06T02:49:12;29.92;;;13.05;;
83404;SDS011;73331;48.168;20.776;2024-03-06T02:50:43;26.77;;;12.40;;
83404;SDS011;73331;48.168;20.776;2024-03-06T02:52:13;26.02;;;12.57;;
83404;SDS011;73331;48.168;20.776;2024-03-06T02:53:44;26.02;;;12.02;;
83404;SDS011;73331;48.168;20.776;2024-03-06T02:55:14;26.52;;;12.70;;
83404;SDS011;73331;48.168;20.776;2024-03-06T02:56:45;28.95;;;13.18;;
83404;SDS011;73331;48.168;20.776;2024-03-06T02:58:16;23.75;;;11.63;;
83404;SDS011;73331;48.168;20.776;2024-03-06T02:59:46;22.02;;;11.13;;
83404;SDS011;73331;48.168;20.776;2024-03-06T03:01:17;22.00;;;10.82;;
83404;SDS011;73331;48.168;20.776;2024-03-06T03:02:47;17.17;;;9.27;;
83404;SDS011;73331;48.168;20.776;2024-03-06T03:04:18;19.33;;;8.98;;
83404;SDS011;73331;48.168;20.776;2024-03-06T03:05:49;15.68;;;8.48;;
83404;SDS011;73331;48.168;20.776;2024-03-06T03:07:20;14.70;;;7.55;;
83404;SDS011;73331;48.168;20.776;2024-03-06T03:08:51;16.48;;;9.32;;
83404;SDS011;73331;48.168;20.776;2024-03-06T03:10:21;19.42;;;8.95;;
83404;SDS011;73331;48.168;20.776;2024-03-06T03:11:54;18.33;;;9.25;;
83404;SDS011;73331;48.168;20.776;2024-03-06T03:13:25;15.80;;;8.27;;
83404;SDS011;73331;48.168;20.776;2024-03-06T03:14:55;19.63;;;8.80;;
83404;SDS011;73331;48.168;20.776;2024-03-06T03:16:26;17.60;;;9.07;;
83404;SDS011;73331;48.168;20.776;2024-03-06T03:17:56;15.68;;;8.23;;
83404;SDS011;73331;48.168;20.776;2024-03-06T03:19:27;16.98;;;8.95;;
83404;SDS011;73331;48.168;20.776;2024-03-06T03:20:57;10.98;;;6.22;;
83404;SDS011;73331;48.168;20.776;2024-03-06T03:22:28;13.18;;;7.68;;
83404;SDS011;73331;48.168;20.776;2024-03-06T03:23:58;16.33;;;7.80;;
83404;SDS011;73331;48.168;20.776;2024-03-06T03:25:28;11.23;;;6.57;;
83404;SDS011;73331;48.168;20.776;2024-03-06T03:26:59;11.80;;;6.90;;
83404;SDS011;73331;48.168;20.776;2024-03-06T03:28:31;11.50;;;6.35;;
83404;SDS011;73331;48.168;20.776;2024-03-06T03:30:02;12.80;;;7.25;;
83404;SDS011;73331;48.168;20.776;2024-03-06T03:31:33;15.27;;;6.93;;
83404;SDS011;73331;48.168;20.776;2024-03-06T03:33:03;11.30;;;6.85;;
83404;SDS011;73331;48.168;20.776;2024-03-06T03:34:34;13.70;;;6.80;;
83404;SDS011;73331;48.168;20.776;2024-03-06T03:36:05;13.13;;;7.65;;
83404;SDS011;73331;48.168;20.776;2024-03-06T03:37:39;15.32;;;7.65;;
83404;SDS011;73331;48.168;20.776;2024-03-06T03:39:10;11.60;;;7.97;;
83404;SDS011;73331;48.168;20.776;2024-03-06T03:40:47;10.00;;;5.32;;
83404;SDS011;73331;48.168;20.776;2024-03-06T03:42:18;12.25;;;6.85;;
83404;SDS011;73331;48.168;20.776;2024-03-06T03:43:49;15.77;;;7.85;;
83404;SDS011;73331;48.168;20.776;2024-03-06T03:45:19;13.52;;;7.68;;
83404;SDS011;73331;48.168;20.776;2024-03-06T03:46:50;11.57;;;6.15;;
83404;SDS011;73331;48.168;20.776;2024-03-06T03:48:21;13.32;;;8.48;;
83404;SDS011;73331;48.168;20.776;2024-03-06T03:49:51;12.07;;;6.03;;
83404;SDS011;73331;48.168;20.776;2024-03-06T03:51:22;16.88;;;7.60;;
83404;SDS011;73331;48.168;20.776;2024-03-06T03:52:52;14.82;;;7.63;;
83404;SDS011;73331;48.168;20.776;2024-03-06T03:54:22;18.30;;;7.63;;
83404;SDS011;73331;48.168;20.776;2024-03-06T03:55:53;14.95;;;7.65;;
83404;SDS011;73331;48.168;20.776;2024-03-06T03:57:23;14.30;;;7.80;;
83404;SDS011;73331;48.168;20.776;2024-03-06T03:58:55;15.55;;;8.52;;
83404;SDS011;73331;48.168;20.776;2024-03-06T04:00:27;14.38;;;7.70;;
83404;SDS011;73331;48.168;20.776;2024-03-06T04:01:57;14.30;;;7.78;;
83404;SDS011;73331;48.168;20.776;2024-03-06T04:03:28;16.60;;;8.88;;
83404;SDS011;73331;48.168;20.776;2024-03-06T04:04:58;16.67;;;9.38;;
83404;SDS011;73331;48.168;20.776;2024-03-06T04:06:30;14.30;;;8.52;;
83404;SDS011;73331;48.168;20.776;2024-03-06T04:08:00;19.13;;;8.80;;
83404;SDS011;73331;48.168;20.776;2024-03-06T04:09:34;16.00;;;9.18;;
83404;SDS011;73331;48.168;20.776;2024-03-06T04:11:08;20.98;;;9.80;;
83404;SDS011;73331;48.168;20.776;2024-03-06T04:12:38;16.08;;;8.63;;
83404;SDS011;73331;48.168;20.776;2024-03-06T04:14:09;21.38;;;10.15;;
83404;SDS011;73331;48.168;20.776;2024-03-06T04:15:40;21.08;;;10.60;;
83404;SDS011;73331;48.168;20.776;2024-03-06T04:17:10;20.27;;;10.82;;
83404;SDS011;73331;48.168;20.776;2024-03-06T04:18:41;20.20;;;10.18;;
83404;SDS011;73331;48.168;20.776;2024-03-06T04:20:11;16.83;;;9.77;;
83404;SDS011;73331;48.168;20.776;2024-03-06T04:21:42;19.25;;;9.48;;
83404;SDS011;73331;48.168;20.776;2024-03-06T04:23:12;16.00;;;10.15;;
83404;SDS011;73331;48.168;20.776;2024-03-06T04:24:43;19.00;;;10.00;;
83404;SDS011;73331;48.168;20.776;2024-03-06T04:26:14;17.50;;;8.82;;
83404;SDS011;73331;48.168;20.776;2024-03-06T04:27:44;21.10;;;9.95;;
83404;SDS011;73331;48.168;20.776;2024-03-06T04:29:15;19.65;;;9.45;;
83404;SDS011;73331;48.168;20.776;2024-03-06T04:30:46;35.83;;;18.30;;
83404;SDS011;73331;48.168;20.776;2024-03-06T04:32:16;27.98;;;14.10;;
83404;SDS011;73331;48.168;20.776;2024-03-06T04:33:47;19.05;;;11.32;;
83404;SDS011;73331;48.168;20.776;2024-03-06T04:35:17;20.35;;;10.85;;
83404;SDS011;73331;48.168;20.776;2024-03-06T04:36:48;18.42;;;9.50;;
83404;SDS011;73331;48.168;20.776;2024-03-06T04:38:18;20.85;;;9.73;;
83404;SDS011;73331;48.168;20.776;2024-03-06T04:39:49;25.20;;;12.32;;
83404;SDS011;73331;48.168;20.776;2024-03-06T04:41:19;30.08;;;16.02;;
83404;SDS011;73331;48.168;20.776;2024-03-06T04:42:50;31.60;;;13.82;;
83404;SDS011;73331;48.168;20.776;2024-03-06T04:44:20;27.75;;;14.13;;
83404;SDS011;73331;48.168;20.776;2024-03-06T04:45:50;30.85;;;14.88;;
83404;SDS011;73331;48.168;20.776;2024-03-06T04:47:23;30.90;;;15.30;;
83404;SDS011;73331;48.168;20.776;2024-03-06T04:48:54;32.25;;;16.33;;
83404;SDS011;73331;48.168;20.776;2024-03-06T04:50:24;31.58;;;14.27;;
83404;SDS011;73331;48.168;20.776;2024-03-06T04:51:55;35.05;;;15.75;;
83404;SDS011;73331;48.168;20.776;2024-03-06T04:53:25;34.42;;;15.73;;
83404;SDS011;73331;48.168;20.776;2024-03-06T04:54:56;27.23;;;13.80;;
83404;SDS011;73331;48.168;20.776;2024-03-06T04:56:27;33.28;;;13.32;;
83404;SDS011;73331;48.168;20.776;2024-03-06T04:57:57;30.52;;;12.10;;
83404;SDS011;73331;48.168;20.776;2024-03-06T04:59:28;24.55;;;11.52;;
83404;SDS011;73331;48.168;20.776;2024-03-06T05:00:58;21.05;;;9.98;;
83404;SDS011;73331;48.168;20.776;2024-03-06T05:02:29;18.42;;;9.27;;
83404;SDS011;73331;48.168;20.776;2024-03-06T05:03:59;18.30;;;9.73;;
83404;SDS011;73331;48.168;20.776;2024-03-06T05:05:30;17.83;;;9.00;;
83404;SDS011;73331;48.168;20.776;2024-03-06T05:07:01;18.27;;;8.60;;
83404;SDS011;73331;48.168;20.776;2024-03-06T05:08:31;18.13;;;8.80;;
83404;SDS011;73331;48.168;20.776;2024-03-06T05:10:02;18.10;;;9.38;;
83404;SDS011;73331;48.168;20.776;2024-03-06T05:11:33;19.08;;;9.30;;
83404;SDS011;73331;48.168;20.776;2024-03-06T05:13:03;18.40;;;9.80;;
83404;SDS011;73331;48.168;20.776;2024-03-06T05:14:34;17.80;;;9.45;;
83404;SDS011;73331;48.168;20.776;2024-03-06T05:16:06;17.77;;;9.65;;
83404;SDS011;73331;48.168;20.776;2024-03-06T05:17:39;18.50;;;9.52;;
83404;SDS011;73331;48.168;20.776;2024-03-06T05:19:09;19.77;;;10.15;;
83404;SDS011;73331;48.168;20.776;2024-03-06T05:20:41;19.48;;;8.77;;
83404;SDS011;73331;48.168;20.776;2024-03-06T05:22:11;14.88;;;8.18;;
83404;SDS011;73331;48.168;20.776;2024-03-06T05:23:42;14.80;;;8.18;;
83404;SDS011;73331;48.168;20.776;2024-03-06T05:25:12;13.85;;;8.57;;
83404;SDS011;73331;48.168;20.776;2024-03-06T05:26:42;16.33;;;8.07;;
83404;SDS011;73331;48.168;20.776;2024-03-06T05:28:13;13.57;;;7.90;;
83404;SDS011;73331;48.168;20.776;2024-03-06T05:29:44;13.70;;;8.05;;
83404;SDS011;73331;48.168;20.776;2024-03-06T05:31:17;19.30;;;9.00;;
83404;SDS011;73331;48.168;20.776;2024-03-06T05:32:53;17.77;;;9.10;;
83404;SDS011;73331;48.168;20.776;2024-03-06T05:34:23;28.42;;;9.73;;
83404;SDS011;73331;48.168;20.776;2024-03-06T05:35:54;21.70;;;9.13;;
83404;SDS011;73331;48.168;20.776;2024-03-06T05:37:24;20.80;;;9.77;;
83404;SDS011;73331;48.168;20.776;2024-03-06T05:38:55;21.05;;;10.13;;
83404;SDS011;73331;48.168;20.776;2024-03-06T05:40:26;19.10;;;9.77;;
83404;SDS011;73331;48.168;20.776;2024-03-06T05:42:00;21.00;;;9.70;;
83404;SDS011;73331;48.168;20.776;2024-03-06T05:43:32;17.67;;;9.20;;
83404;SDS011;73331;48.168;20.776;2024-03-06T05:45:03;19.40;;;9.82;;
83404;SDS011;73331;48.168;20.776;2024-03-06T05:46:40;21.25;;;10.07;;
83404;SDS011;73331;48.168;20.776;2024-03-06T05:48:11;18.50;;;9.32;;
83404;SDS011;73331;48.168;20.776;2024-03-06T05:49:41;15.90;;;8.02;;
83404;SDS011;73331;48.168;20.776;2024-03-06T05:51:11;19.13;;;10.10;;
83404;SDS011;73331;48.168;20.776;2024-03-06T05:52:42;23.25;;;10.52;;
83404;SDS011;73331;48.168;20.776;2024-03-06T05:54:12;20.00;;;10.07;;
83404;SDS011;73331;48.168;20.776;2024-03-06T05:55:43;18.77;;;9.57;;
83404;SDS011;73331;48.168;20.776;2024-03-06T05:57:13;22.50;;;11.35;;
83404;SDS011;73331;48.168;20.776;2024-03-06T05:58:45;23.65;;;11.10;;
83404;SDS011;73331;48.168;20.776;2024-03-06T06:00:17;19.20;;;11.55;;
83404;SDS011;73331;48.168;20.776;2024-03-06T06:01:48;21.15;;;11.43;;
83404;SDS011;73331;48.168;20.776;2024-03-06T06:03:18;18.15;;;9.85;;
83404;SDS011;73331;48.168;20.776;2024-03-06T06:04:49;14.05;;;8.82;;
83404;SDS011;73331;48.168;20.776;2024-03-06T06:06:20;16.20;;;9.07;;
83404;SDS011;73331;48.168;20.776;2024-03-06T06:07:50;17.73;;;9.80;;
83404;SDS011;73331;48.168;20.776;2024-03-06T06:09:21;18.50;;;11.18;;
83404;SDS011;73331;48.168;20.776;2024-03-06T06:10:51;21.10;;;11.10;;
83404;SDS011;73331;48.168;20.776;2024-03-06T06:12:22;22.67;;;11.52;;
83404;SDS011;73331;48.168;20.776;2024-03-06T06:13:52;24.40;;;12.55;;
83404;SDS011;73331;48.168;20.776;2024-03-06T06:15:22;23.52;;;12.18;;
83404;SDS011;73331;48.168;20.776;2024-03-06T06:16:53;24.60;;;12.82;;
83404;SDS011;73331;48.168;20.776;2024-03-06T06:18:24;21.17;;;11.52;;
83404;SDS011;73331;48.168;20.776;2024-03-06T06:19:54;23.25;;;12.05;;
83404;SDS011;73331;48.168;20.776;2024-03-06T06:21:24;23.50;;;11.80;;
83404;SDS011;73331;48.168;20.776;2024-03-06T06:22:55;23.08;;;10.80;;
83404;SDS011;73331;48.168;20.776;2024-03-06T06:24:26;22.02;;;11.13;;
83404;SDS011;73331;48.168;20.776;2024-03-06T06:25:57;19.75;;;11.20;;
83404;SDS011;73331;48.168;20.776;2024-03-06T06:27:27;22.38;;;11.77;;
83404;SDS011;73331;48.168;20.776;2024-03-06T06:28:58;17.02;;;8.77;;
83404;SDS011;73331;48.168;20.776;2024-03-06T06:30:29;19.38;;;9.80;;
83404;SDS011;73331;48.168;20.776;2024-03-06T06:31:59;21.08;;;10.00;;
83404;SDS011;73331;48.168;20.776;2024-03-06T06:33:30;21.08;;;10.45;;
83404;SDS011;73331;48.168;20.776;2024-03-06T06:35:01;21.52;;;12.70;;
83404;SDS011;73331;48.168;20.776;2024-03-06T06:36:31;25.42;;;13.07;;
83404;SDS011;73331;48.168;20.776;2024-03-06T06:38:02;21.75;;;12.55;;
83404;SDS011;73331;48.168;20.776;2024-03-06T06:39:32;24.83;;;13.35;;
83404;SDS011;73331;48.168;20.776;2024-03-06T06:42:35;27.70;;;14.32;;
83404;SDS011;73331;48.168;20.776;2024-03-06T06:44:06;23.75;;;13.75;;
83404;SDS011;73331;48.168;20.776;2024-03-06T06:45:36;27.48;;;14.98;;
83404;SDS011;73331;48.168;20.776;2024-03-06T06:47:08;28.30;;;15.85;;
83404;SDS011;73331;48.168;20.776;2024-03-06T06:48:38;30.77;;;14.82;;
83404;SDS011;73331;48.168;20.776;2024-03-06T06:50:09;43.17;;;20.17;;
83404;SDS011;73331;48.168;20.776;2024-03-06T06:51:41;84.65;;;34.92;;
83404;SDS011;73331;48.168;20.776;2024-03-06T06:53:11;61.15;;;25.75;;
83404;SDS011;73331;48.168;20.776;2024-03-06T06:54:42;50.40;;;18.25;;
83404;SDS011;73331;48.168;20.776;2024-03-06T06:56:13;25.77;;;13.55;;
83404;SDS011;73331;48.168;20.776;2024-03-06T06:57:43;20.80;;;12.00;;
83404;SDS011;73331;48.168;20.776;2024-03-06T06:59:14;23.73;;;12.40;;
83404;SDS011;73331;48.168;20.776;2024-03-06T07:00:44;20.63;;;11.93;;
83404;SDS011;73331;48.168;20.776;2024-03-06T07:02:15;21.83;;;12.73;;
83404;SDS011;73331;48.168;20.776;2024-03-06T07:03:46;23.30;;;12.05;;
83404;SDS011;73331;48.168;20.776;2024-03-06T07:05:17;23.70;;;13.07;;
83404;SDS011;73331;48.168;20.776;2024-03-06T07:06:48;22.35;;;12.13;;
83404;SDS011;73331;48.168;20.776;2024-03-06T07:08:18;23.20;;;13.02;;
83404;SDS011;73331;48.168;20.776;2024-03-06T07:09:49;22.98;;;12.50;;
83404;SDS011;73331;48.168;20.776;2024-03-06T07:11:23;26.38;;;12.55;;
83404;SDS011;73331;48.168;20.776;2024-03-06T07:12:54;23.42;;;12.05;;
83404;SDS011;73331;48.168;20.776;2024-03-06T07:14:24;21.90;;;12.60;;
83404;SDS011;73331;48.168;20.776;2024-03-06T07:15:55;23.52;;;13.05;;
83404;SDS011;73331;48.168;20.776;2024-03-06T07:17:25;20.88;;;10.90;;
83404;SDS011;73331;48.168;20.776;2024-03-06T07:18:56;21.13;;;10.98;;
83404;SDS011;73331;48.168;20.776;2024-03-06T07:20:26;22.80;;;11.52;;
83404;SDS011;73331;48.168;20.776;2024-03-06T07:21:57;20.05;;;10.18;;
83404;SDS011;73331;48.168;20.776;2024-03-06T07:23:27;20.20;;;10.68;;
83404;SDS011;73331;48.168;20.776;2024-03-06T07:24:58;19.63;;;10.77;;
83404;SDS011;73331;48.168;20.776;2024-03-06T07:26:28;22.63;;;12.30;;
83404;SDS011;73331;48.168;20.776;2024-03-06T07:28:00;19.58;;;10.15;;
83404;SDS011;73331;48.168;20.776;2024-03-06T07:29:30;20.02;;;10.80;;
83404;SDS011;73331;48.168;20.776;2024-03-06T07:31:01;19.42;;;10.30;;
83404;SDS011;73331;48.168;20.776;2024-03-06T07:32:32;18.35;;;9.48;;
83404;SDS011;73331;48.168;20.776;2024-03-06T07:34:03;21.83;;;8.82;;
83404;SDS011;73331;48.168;20.776;2024-03-06T07:35:33;18.58;;;9.73;;
83404;SDS011;73331;48.168;20.776;2024-03-06T07:37:06;20.00;;;9.20;;
83404;SDS011;73331;48.168;20.776;2024-03-06T07:38:36;17.25;;;9.05;;
83404;SDS011;73331;48.168;20.776;2024-03-06T07:40:07;20.42;;;8.32;;
83404;SDS011;73331;48.168;20.776;2024-03-06T07:41:39;14.88;;;8.00;;
83404;SDS011;73331;48.168;20.776;2024-03-06T07:43:10;17.88;;;8.43;;
83404;SDS011;73331;48.168;20.776;2024-03-06T07:44:41;19.10;;;10.38;;
83404;SDS011;73331;48.168;20.776;2024-03-06T07:46:11;21.20;;;11.27;;
83404;SDS011;73331;48.168;20.776;2024-03-06T07:47:42;29.63;;;16.25;;
83404;SDS011;73331;48.168;20.776;2024-03-06T07:49:13;58.08;;;31.05;;
83404;SDS011;73331;48.168;20.776;2024-03-06T07:50:43;19.65;;;11.60;;
83404;SDS011;73331;48.168;20.776;2024-03-06T07:52:14;14.55;;;7.90;;
83404;SDS011;73331;48.168;20.776;2024-03-06T07:53:44;13.90;;;7.57;;
83404;SDS011;73331;48.168;20.776;2024-03-06T07:55:15;45.30;;;21.67;;
83404;SDS011;73331;48.168;20.776;2024-03-06T07:56:46;24.13;;;12.50;;
83404;SDS011;73331;48.168;20.776;2024-03-06T07:58:18;25.05;;;15.50;;
83404;SDS011;73331;48.168;20.776;2024-03-06T07:59:49;21.48;;;11.85;;
83404;SDS011;73331;48.168;20.776;2024-03-06T08:01:21;20.13;;;10.30;;
83404;SDS011;73331;48.168;20.776;2024-03-06T08:02:52;13.57;;;7.93;;
83404;SDS011;73331;48.168;20.776;2024-03-06T08:04:23;14.38;;;7.65;;
83404;SDS011;73331;48.168;20.776;2024-03-06T08:05:53;15.00;;;7.55;;
83404;SDS011;73331;48.168;20.776;2024-03-06T08:07:24;14.63;;;7.47;;
83404;SDS011;73331;48.168;20.776;2024-03-06T08:08:55;12.38;;;6.85;;
83404;SDS011;73331;48.168;20.776;2024-03-06T08:10:26;16.92;;;8.13;;
83404;SDS011;73331;48.168;20.776;2024-03-06T08:11:56;12.10;;;5.95;;
83404;SDS011;73331;48.168;20.776;2024-03-06T08:13:27;12.10;;;6.30;;
83404;SDS011;73331;48.168;20.776;2024-03-06T08:14:58;12.98;;;7.57;;
83404;SDS011;73331;48.168;20.776;2024-03-06T08:16:28;13.52;;;7.40;;
83404;SDS011;73331;48.168;20.776;2024-03-06T08:18:00;13.52;;;6.90;;
83404;SDS011;73331;48.168;20.776;2024-03-06T08:19:30;7.25;;;4.47;;
83404;SDS011;73331;48.168;20.776;2024-03-06T08:21:01;12.40;;;5.78;;
83404;SDS011;73331;48.168;20.776;2024-03-06T08:22:34;12.52;;;7.25;;
83404;SDS011;73331;48.168;20.776;2024-03-06T08:24:08;11.23;;;6.50;;
83404;SDS011;73331;48.168;20.776;2024-03-06T08:25:39;13.38;;;6.93;;
83404;SDS011;73331;48.168;20.776;2024-03-06T08:27:09;9.73;;;5.90;;
83404;SDS011;73331;48.168;20.776;2024-03-06T08:28:40;11.45;;;6.30;;
83404;SDS011;73331;48.168;20.776;2024-03-06T08:30:10;8.68;;;5.85;;
83404;SDS011;73331;48.168;20.776;2024-03-06T08:31:42;11.85;;;5.85;;
83404;SDS011;73331;48.168;20.776;2024-03-06T08:33:12;9.93;;;5.50;;
83404;SDS011;73331;48.168;20.776;2024-03-06T08:34:43;11.15;;;6.40;;
83404;SDS011;73331;48.168;20.776;2024-03-06T08:36:13;11.68;;;6.75;;
83404;SDS011;73331;48.168;20.776;2024-03-06T08:37:44;15.27;;;7.35;;
83404;SDS011;73331;48.168;20.776;2024-03-06T08:39:14;11.27;;;6.18;;
83404;SDS011;73331;48.168;20.776;2024-03-06T08:42:16;12.73;;;6.63;;
83404;SDS011;73331;48.168;20.776;2024-03-06T08:45:19;7.80;;;4.15;;
83404;SDS011;73331;48.168;20.776;2024-03-06T08:46:49;12.10;;;6.32;;
83404;SDS011;73331;48.168;20.776;2024-03-06T08:48:20;17.92;;;9.70;;
83404;SDS011;73331;48.168;20.776;2024-03-06T08:49:51;28.73;;;15.60;;
83404;SDS011;73331;48.168;20.776;2024-03-06T08:51:22;6.30;;;4.13;;
83404;SDS011;73331;48.168;20.776;2024-03-06T08:52:52;9.88;;;5.35;;
83404;SDS011;73331;48.168;20.776;2024-03-06T08:54:23;9.25;;;5.38;;
83404;SDS011;73331;48.168;20.776;2024-03-06T08:55:53;10.93;;;5.40;;